Aérodrome :
LOGIN :

S'inscrire | Disclaimer

   EN    FR    IT 

 










Légende :    VFR   VFR Marginal   IFR   IFR Intensif   IFR Très Intensif
Visi : 
Plafond : 
>= 8 km
>= 3000ft
5 à 8 km
1000 à 3000 ft
1500m à 5 km
500 à 1000 ft
800 à 1500m
200 à 500 ft
< 800m
< 200 ft
Symboles :   Orages  Brouillard  Fortes neiges  Fortes précipitations  Vent > 20 kt
SIGMETs :   Divers  Orages  Givrage  Turbulence  Onde Orograph.  Cendres Volcan.







- Altitude de l'aérodrome : 125 ft
- Code IATA : MGL


EDLN - Mönchengladbach

DERNIER METAR :
  • 141420Z 23016KT 170V260 9999 SCT017 04/01 Q0993

METARs EXPIRÉS :
  • 141350Z 23012G25KT 190V270 9999 SCT016 04/01 Q0993
  • 141320Z 23015G27KT 190V260 9999 SCT017 04/01 Q0993
  • 141250Z 23012G23KT 130V280 9999 BKN019 05/02 Q0993
  • 141220Z 23012G23KT 180V300 9999 BKN018 04/02 Q0993
  • 141150Z 23018G29KT 180V260 9999 SCT015 04/02 Q0993

TAF TAF EDLN
Valide du 14 à 15h jusqu'au 15 à 00h UTC


141400Z 1415/1424 23012G25KT 9999 SCT015 BKN020
BECMG 1415/1418 21006KT
Pas de NOTAMs connus pour ce terrain.



MET'MAP, la Météo Aéronautique d'un coup d'oeil ! - Copyright ORBIFLY Décembre 2007 - Disclaimer

ORBIFLY MET'MAP TEAM :

Programmation & Développement : Alexandra Zaïnal
Conception & Développement : Baudouin d'Aumeries
Co-Programmation & Développement : Marc-Olivier Méhu
Soutien technique & logistique : Manuel Goepfert

Contact : metmap@orbifly.com




SOURCES & CREDITS :

   NOAA